Time;durP1;ratioP1;P1;durP2;ratioP2;P2;SDS_P1;SDS_P2;PMS_P1;PMS_P2;Temp;Humidity;BMP_temperature;BMP_pressure;BME280_temperature;BME280_humidity;BME280_pressure;Samples;Min_cycle;Max_cycle;Signal;HPM_P1;HPM_P2
2023/03/25 00:01:31;;;;;;;0.90;0.53;;;13.90;71.70;;;;;;926820;151;27350;-75
2023/03/25 00:03:59;;;;;;;0.50;0.50;;;13.90;71.70;;;;;;926220;151;27482;-74
2023/03/25 00:06:24;;;;;;;1.17;0.83;;;13.70;71.80;;;;;;924937;151;27437;-74
2023/03/25 00:08:51;;;;;;;0.70;0.60;;;13.60;72.10;;;;;;926957;151;27422;-75
2023/03/25 00:11:18;;;;;;;1.07;0.60;;;13.50;72.50;;;;;;925297;151;27460;-74
2023/03/25 00:13:44;;;;;;;1.20;0.70;;;13.30;72.80;;;;;;928596;151;27498;-74
2023/03/25 00:16:11;;;;;;;1.27;0.67;;;13.20;73.10;;;;;;924722;151;27386;-74
2023/03/25 00:18:38;;;;;;;0.83;0.50;;;13.10;73.40;;;;;;926616;151;27347;-74
2023/03/25 00:21:04;;;;;;;0.70;0.50;;;12.90;73.80;;;;;;907222;154;27402;-75
2023/03/25 00:23:31;;;;;;;0.63;0.60;;;12.80;74.00;;;;;;926677;151;27481;-74
2023/03/25 00:26:00;;;;;;;0.33;0.30;;;12.70;74.20;;;;;;924380;151;27399;-74
2023/03/25 00:28:27;;;;;;;1.07;0.60;;;12.60;74.80;;;;;;909189;153;27483;-74
2023/03/25 00:30:53;;;;;;;0.13;0.13;;;12.50;75.40;;;;;;911099;153;27396;-74
2023/03/25 00:33:21;;;;;;;0.60;0.50;;;12.40;75.40;;;;;;909383;153;27446;-74
2023/03/25 00:35:48;;;;;;;0.40;0.40;;;12.30;76.20;;;;;;924876;151;27456;-74
2023/03/25 00:38:13;;;;;;;1.07;0.40;;;12.20;76.00;;;;;;918083;152;27400;-74
2023/03/25 00:40:39;;;;;;;1.90;0.70;;;12.10;76.40;;;;;;923599;151;27391;-74
2023/03/25 00:43:06;;;;;;;0.77;0.37;;;12.00;76.50;;;;;;902957;154;27374;-74
2023/03/25 00:45:32;;;;;;;1.00;0.70;;;11.90;76.60;;;;;;920916;152;27387;-74
2023/03/25 00:47:59;;;;;;;1.13;0.30;;;11.80;77.40;;;;;;917960;152;27386;-74
2023/03/25 00:50:25;;;;;;;0.77;0.50;;;11.70;77.30;;;;;;918415;152;27297;-74
2023/03/25 00:52:55;;;;;;;1.17;0.50;;;11.60;77.30;;;;;;917701;152;27425;-74
2023/03/25 00:55:21;;;;;;;0.37;0.37;;;11.50;78.00;;;;;;925780;151;27419;-74
2023/03/25 00:57:48;;;;;;;0.40;0.40;;;11.40;77.90;;;;;;903866;153;27740;-74
2023/03/25 01:00:14;;;;;;;0.43;0.43;;;11.30;79.00;;;;;;911347;154;27366;-74
2023/03/25 01:02:41;;;;;;;0.63;0.60;;;11.30;79.00;;;;;;905489;153;27409;-74
2023/03/25 01:05:09;;;;;;;1.13;0.60;;;11.20;79.20;;;;;;923981;151;27528;-74
2023/03/25 01:07:34;;;;;;;0.37;0.37;;;11.20;79.80;;;;;;940353;148;27397;-75
2023/03/25 01:10:01;;;;;;;1.13;0.63;;;11.10;80.10;;;;;;924479;151;27489;-74
2023/03/25 01:12:27;;;;;;;1.30;0.50;;;11.10;80.40;;;;;;923327;151;27734;-74
2023/03/25 01:14:54;;;;;;;0.57;0.50;;;11.10;80.80;;;;;;939311;148;27414;-74
2023/03/25 01:17:20;;;;;;;0.43;0.37;;;11.10;81.00;;;;;;925665;151;27403;-74
2023/03/25 01:19:47;;;;;;;0.60;0.40;;;11.10;80.90;;;;;;902980;154;27956;-74
2023/03/25 01:22:14;;;;;;;0.70;0.57;;;11.10;81.10;;;;;;902913;155;27505;-74
2023/03/25 01:24:40;;;;;;;0.73;0.57;;;11.00;81.60;;;;;;901879;154;27481;-74
2023/03/25 01:27:07;;;;;;;2.10;0.80;;;11.00;81.70;;;;;;920367;150;27372;-74
2023/03/25 01:29:33;;;;;;;0.73;0.60;;;11.00;81.70;;;;;;903713;153;27505;-74
2023/03/25 01:32:00;;;;;;;1.90;0.40;;;11.00;82.00;;;;;;902266;155;27411;-74
2023/03/25 01:34:27;;;;;;;1.20;0.50;;;11.00;82.20;;;;;;919010;152;27299;-74
2023/03/25 01:36:54;;;;;;;1.87;0.40;;;11.00;82.40;;;;;;915566;153;27438;-74
2023/03/25 01:39:20;;;;;;;1.67;0.77;;;11.10;82.20;;;;;;910521;153;27445;-74
2023/03/25 01:41:46;;;;;;;0.67;0.43;;;11.10;82.10;;;;;;927800;151;28010;-73
2023/03/25 01:44:19;;;;;;;1.90;0.90;;;11.00;82.20;;;;;;910415;153;27457;-74
2023/03/25 01:46:51;;;;;;;1.17;0.50;;;11.10;82.60;;;;;;927582;151;27352;-75
2023/03/25 01:49:22;;;;;;;1.13;0.60;;;11.00;82.60;;;;;;909282;153;27554;-74
2023/03/25 01:51:47;;;;;;;2.57;0.60;;;11.00;82.80;;;;;;927875;151;27416;-74
2023/03/25 01:54:16;;;;;;;2.63;0.60;;;11.10;83.00;;;;;;909379;152;27425;-74
2023/03/25 01:56:41;;;;;;;1.43;0.60;;;11.10;83.20;;;;;;926229;151;27371;-74
2023/03/25 01:59:07;;;;;;;1.37;0.60;;;11.10;83.60;;;;;;909682;153;27429;-74
2023/03/25 02:01:35;;;;;;;1.07;0.50;;;11.00;83.50;;;;;;926051;150;27410;-74
2023/03/25 02:04:08;;;;;;;0.83;0.60;;;11.00;83.70;;;;;;927388;150;27382;-74
2023/03/25 02:06:35;;;;;;;1.43;0.80;;;11.00;84.00;;;;;;927248;151;27473;-73
2023/03/25 02:09:02;;;;;;;2.53;0.93;;;11.00;84.00;;;;;;926287;151;27535;-78
2023/03/25 02:11:28;;;;;;;1.80;0.90;;;11.00;84.60;;;;;;926578;151;27407;-78
2023/03/25 02:13:55;;;;;;;2.00;0.70;;;11.00;84.80;;;;;;927587;151;27469;-78
2023/03/25 02:16:27;;;;;;;2.50;0.73;;;11.10;85.30;;;;;;926456;151;27353;-78
2023/03/25 02:19:11;;;;;;;2.27;0.97;;;11.10;85.30;;;;;;925612;151;27400;-79
2023/03/25 02:22:02;;;;;;;2.37;0.93;;;11.10;85.60;;;;;;923059;151;27841;-79
2023/03/25 02:24:41;;;;;;;2.43;1.13;;;11.10;85.50;;;;;;925461;151;27306;-79
2023/03/25 02:27:16;;;;;;;0.77;0.77;;;11.20;85.80;;;;;;926080;151;27364;-79
2023/03/25 02:30:15;;;;;;;2.90;0.70;;;11.20;86.20;;;;;;927844;151;27967;-79
2023/03/25 02:33:03;;;;;;;1.10;1.00;;;11.20;86.10;;;;;;903059;157;27446;-79
2023/03/25 02:35:30;;;;;;;1.37;1.00;;;11.30;86.00;;;;;;923538;151;27381;-79
2023/03/25 02:38:05;;;;;;;1.20;0.90;;;11.30;86.10;;;;;;923393;150;27327;-78
2023/03/25 02:40:37;;;;;;;0.97;0.93;;;11.30;86.70;;;;;;895657;154;27425;-80
2023/03/25 02:43:09;;;;;;;3.33;1.07;;;11.30;87.00;;;;;;903278;153;27480;-79
2023/03/25 02:45:36;;;;;;;3.93;0.90;;;11.30;87.30;;;;;;901319;154;27484;-79
2023/03/25 02:48:06;;;;;;;1.00;0.90;;;11.30;87.50;;;;;;917878;152;27373;-78
2023/03/25 02:50:41;;;;;;;3.33;1.10;;;11.30;87.80;;;;;;911585;154;27421;-78
2023/03/25 02:53:09;;;;;;;1.70;0.73;;;11.30;88.60;;;;;;903604;155;27386;-79
2023/03/25 02:55:36;;;;;;;1.17;1.07;;;11.40;89.10;;;;;;918991;151;27450;-79
2023/03/25 02:58:02;;;;;;;2.10;1.30;;;11.40;88.50;;;;;;902441;154;27310;-79
2023/03/25 03:00:28;;;;;;;1.00;0.90;;;11.40;89.20;;;;;;919814;150;27414;-78
2023/03/25 03:03:00;;;;;;;1.77;0.93;;;11.40;89.50;;;;;;904045;153;27448;-79
2023/03/25 03:05:26;;;;;;;1.90;0.67;;;11.40;89.60;;;;;;904785;154;27348;-79
2023/03/25 03:07:53;;;;;;;2.37;1.00;;;11.40;89.60;;;;;;903255;155;27377;-79
2023/03/25 03:10:22;;;;;;;1.87;0.87;;;11.40;89.90;;;;;;918156;151;27402;-79
2023/03/25 03:13:10;;;;;;;1.60;1.00;;;11.40;90.00;;;;;;918372;151;27368;-79
2023/03/25 03:15:57;;;;;;;1.33;0.93;;;11.40;90.10;;;;;;919119;152;27453;-78
2023/03/25 03:18:33;;;;;;;1.80;0.83;;;11.30;90.00;;;;;;903276;155;27912;-79
2023/03/25 03:21:05;;;;;;;1.83;0.70;;;11.30;90.20;;;;;;901137;155;27536;-79
2023/03/25 03:23:32;;;;;;;1.50;0.77;;;11.30;90.10;;;;;;919317;152;27975;-79
2023/03/25 03:26:16;;;;;;;0.50;0.50;;;11.30;90.10;;;;;;916999;152;27500;-78
2023/03/25 03:28:48;;;;;;;0.87;0.67;;;11.30;90.30;;;;;;904735;155;27384;-79
2023/03/25 03:31:27;;;;;;;1.77;0.80;;;11.30;90.20;;;;;;910311;153;27803;-81
2023/03/25 03:33:54;;;;;;;1.23;0.50;;;11.30;90.00;;;;;;919522;150;27461;-79
2023/03/25 03:36:20;;;;;;;0.70;0.67;;;11.30;90.00;;;;;;904595;154;27364;-79
2023/03/25 03:38:47;;;;;;;1.70;1.07;;;11.30;90.00;;;;;;902443;154;27519;-80
2023/03/25 03:41:13;;;;;;;1.20;0.77;;;11.30;90.00;;;;;;902912;154;27513;-80
2023/03/25 03:43:45;;;;;;;0.73;0.57;;;11.20;90.00;;;;;;911070;154;27353;-80
2023/03/25 03:46:15;;;;;;;0.83;0.70;;;11.20;89.50;;;;;;913465;151;27326;-78
2023/03/25 03:48:41;;;;;;;1.17;0.63;;;11.20;89.70;;;;;;918961;152;27382;-79
2023/03/25 03:51:08;;;;;;;0.60;0.60;;;11.20;89.90;;;;;;920131;152;27494;-78
2023/03/25 03:53:37;;;;;;;0.77;0.77;;;11.10;89.60;;;;;;902273;155;27477;-79
2023/03/25 03:56:04;;;;;;;0.70;0.67;;;11.10;89.80;;;;;;919015;151;27434;-79
2023/03/25 03:58:30;;;;;;;1.40;0.70;;;11.10;89.40;;;;;;924023;151;27343;-79
2023/03/25 04:01:03;;;;;;;0.93;0.67;;;11.00;89.60;;;;;;921635;151;27488;-79
2023/03/25 04:03:33;;;;;;;0.63;0.60;;;11.00;89.50;;;;;;916686;151;27364;-78
2023/03/25 04:06:06;;;;;;;0.60;0.50;;;11.00;89.20;;;;;;922016;151;27357;-79
2023/03/25 04:08:31;;;;;;;0.70;0.57;;;10.90;88.70;;;;;;922519;151;27541;-78
2023/03/25 04:10:58;;;;;;;0.50;0.50;;;10.90;88.20;;;;;;925727;151;27996;-78
2023/03/25 04:13:24;;;;;;;0.40;0.40;;;10.90;88.70;;;;;;922978;151;27313;-78
2023/03/25 04:15:51;;;;;;;0.53;0.53;;;10.80;89.10;;;;;;923656;151;27396;-78
2023/03/25 04:18:22;;;;;;;1.87;0.57;;;10.80;88.90;;;;;;926063;151;27366;-78
2023/03/25 04:20:48;;;;;;;1.00;0.90;;;10.80;89.60;;;;;;922639;151;27385;-78
2023/03/25 04:23:15;;;;;;;0.60;0.60;;;10.80;89.70;;;;;;922834;151;27369;-78
2023/03/25 04:25:37;;;;;;;2.10;0.90;;;10.80;89.90;;;;;;923075;151;27306;-78
2023/03/25 04:28:04;;;;;;;1.53;0.57;;;10.80;90.00;;;;;;922988;151;27347;-78
2023/03/25 04:30:31;;;;;;;0.77;0.67;;;10.90;90.00;;;;;;925678;151;27386;-78
2023/03/25 04:32:59;;;;;;;1.10;0.83;;;10.90;89.90;;;;;;925090;151;27351;-78
2023/03/25 04:35:24;;;;;;;0.70;0.70;;;10.90;89.60;;;;;;921900;151;27433;-78
2023/03/25 04:37:53;;;;;;;2.30;0.90;;;10.90;89.80;;;;;;924635;151;27396;-78
2023/03/25 04:40:17;;;;;;;2.13;0.70;;;11.00;89.80;;;;;;925092;151;27394;-78
2023/03/25 04:42:46;;;;;;;1.17;0.70;;;11.00;89.60;;;;;;927164;151;27378;-78
2023/03/25 04:45:15;;;;;;;1.03;0.77;;;11.10;89.70;;;;;;926237;151;27352;-78
2023/03/25 04:47:45;;;;;;;1.50;0.60;;;11.10;89.40;;;;;;927529;151;27715;-78
2023/03/25 04:50:09;;;;;;;1.70;0.70;;;11.10;90.10;;;;;;909850;153;27493;-78
2023/03/25 04:52:37;;;;;;;0.93;0.70;;;11.10;89.10;;;;;;926931;151;27481;-78
2023/03/25 04:55:04;;;;;;;1.17;0.63;;;11.20;88.90;;;;;;911049;153;27357;-78
2023/03/25 04:57:30;;;;;;;1.33;0.80;;;11.20;88.60;;;;;;918807;153;27465;-79
2023/03/25 04:59:55;;;;;;;1.80;1.50;;;11.20;88.90;;;;;;926788;151;27331;-78
2023/03/25 05:02:22;;;;;;;1.17;1.00;;;11.20;88.60;;;;;;912283;153;27490;-79
2023/03/25 05:04:48;;;;;;;1.97;1.20;;;11.30;88.70;;;;;;925587;151;27389;-78
2023/03/25 05:07:17;;;;;;;2.17;0.80;;;11.30;88.60;;;;;;911972;153;27415;-79
2023/03/25 05:09:42;;;;;;;2.50;1.10;;;11.30;88.30;;;;;;917882;153;27430;-79
2023/03/25 05:12:10;;;;;;;0.80;0.80;;;11.30;88.30;;;;;;910811;153;27439;-78
2023/03/25 05:14:35;;;;;;;2.43;1.10;;;11.30;89.00;;;;;;926295;150;27422;-78
2023/03/25 05:17:01;;;;;;;1.13;1.00;;;11.30;87.80;;;;;;909602;153;27397;-79
2023/03/25 05:19:28;;;;;;;1.80;0.83;;;11.30;87.80;;;;;;918365;153;27337;-79
2023/03/25 05:21:55;;;;;;;2.87;0.90;;;11.30;87.50;;;;;;909692;153;27309;-78
2023/03/25 05:24:21;;;;;;;1.50;0.93;;;11.40;87.50;;;;;;926121;151;27351;-78
2023/03/25 05:26:48;;;;;;;3.27;1.17;;;11.40;87.40;;;;;;927456;150;27496;-78
2023/03/25 05:29:14;;;;;;;2.17;1.00;;;11.40;87.20;;;;;;924691;151;27358;-78
2023/03/25 05:31:41;;;;;;;1.70;1.20;;;11.40;87.10;;;;;;909096;153;27350;-78
2023/03/25 05:34:08;;;;;;;1.33;0.80;;;11.40;87.00;;;;;;910623;153;27389;-78
2023/03/25 05:36:34;;;;;;;1.40;1.10;;;11.40;86.90;;;;;;928253;150;27388;-78
2023/03/25 05:39:01;;;;;;;1.63;1.00;;;11.40;86.60;;;;;;923678;151;27420;-78
2023/03/25 05:41:37;;;;;;;1.30;1.03;;;11.50;87.20;;;;;;923957;151;27325;-79
2023/03/25 05:43:59;;;;;;;2.37;0.93;;;11.50;86.30;;;;;;924962;151;27735;-79
2023/03/25 05:46:27;;;;;;;0.80;0.80;;;11.50;86.30;;;;;;924493;151;27497;-78
2023/03/25 05:48:53;;;;;;;1.70;0.80;;;11.50;86.20;;;;;;923720;151;27445;-78
2023/03/25 05:51:22;;;;;;;1.27;0.80;;;11.50;86.30;;;;;;922830;151;27459;-78
2023/03/25 05:53:49;;;;;;;2.33;0.90;;;11.50;86.20;;;;;;923704;151;27357;-78
2023/03/25 05:56:18;;;;;;;2.03;1.20;;;11.50;86.10;;;;;;923779;151;27407;-78
2023/03/25 05:58:44;;;;;;;1.33;0.80;;;11.60;86.00;;;;;;925081;151;27389;-78
2023/03/25 06:01:14;;;;;;;1.27;0.90;;;11.60;86.00;;;;;;924333;151;27335;-78
2023/03/25 06:03:38;;;;;;;0.87;0.73;;;11.60;86.10;;;;;;922730;151;27336;-78
2023/03/25 06:06:04;;;;;;;3.63;1.30;;;11.60;86.10;;;;;;923583;151;27359;-78
2023/03/25 06:08:32;;;;;;;0.70;0.60;;;11.60;86.10;;;;;;924757;151;27507;-78
2023/03/25 06:10:57;;;;;;;1.57;0.87;;;11.70;86.40;;;;;;924861;151;27419;-78
2023/03/25 06:13:24;;;;;;;1.37;0.70;;;11.70;86.20;;;;;;925225;151;27291;-78
2023/03/25 06:15:54;;;;;;;1.87;1.03;;;11.70;86.10;;;;;;923366;151;27456;-77
2023/03/25 06:18:21;;;;;;;1.57;0.70;;;11.70;86.50;;;;;;922823;151;27374;-78
2023/03/25 06:20:45;;;;;;;0.77;0.77;;;11.70;86.30;;;;;;921792;151;27496;-78
2023/03/25 06:23:11;;;;;;;2.50;1.13;;;11.70;86.50;;;;;;923434;151;27368;-78
2023/03/25 06:25:37;;;;;;;1.27;0.70;;;11.70;86.70;;;;;;924519;151;27339;-78
2023/03/25 06:28:03;;;;;;;1.93;0.70;;;11.70;86.80;;;;;;924384;151;28218;-78
2023/03/25 06:30:30;;;;;;;1.90;0.80;;;11.70;87.10;;;;;;923754;151;27497;-78
2023/03/25 06:32:58;;;;;;;1.53;0.93;;;11.70;87.40;;;;;;923932;151;27490;-79
2023/03/25 06:35:23;;;;;;;1.60;1.00;;;11.80;87.80;;;;;;924246;151;27407;-78
2023/03/25 06:37:50;;;;;;;1.13;0.70;;;11.80;87.40;;;;;;921884;151;27343;-78
2023/03/25 06:40:16;;;;;;;2.60;0.80;;;11.80;87.70;;;;;;926496;151;27411;-78
2023/03/25 06:42:43;;;;;;;2.33;0.83;;;11.90;88.10;;;;;;927226;151;27507;-78
2023/03/25 06:45:10;;;;;;;2.40;1.00;;;12.00;88.30;;;;;;927290;151;27456;-78
2023/03/25 06:47:36;;;;;;;1.37;0.80;;;12.10;88.30;;;;;;926974;151;27338;-78
2023/03/25 06:50:03;;;;;;;0.60;0.60;;;12.20;87.90;;;;;;926484;151;27331;-78
2023/03/25 06:52:29;;;;;;;0.53;0.53;;;12.30;87.80;;;;;;927686;151;27714;-78
2023/03/25 06:54:56;;;;;;;0.97;0.67;;;12.50;87.30;;;;;;926609;151;27431;-78
2023/03/25 06:57:23;;;;;;;2.17;0.70;;;12.50;87.20;;;;;;927224;151;27419;-78
2023/03/25 06:59:50;;;;;;;1.07;0.97;;;12.60;87.10;;;;;;926283;151;27364;-78
2023/03/25 07:02:16;;;;;;;2.77;1.00;;;12.70;87.10;;;;;;924683;151;27407;-78
2023/03/25 07:04:42;;;;;;;2.43;1.33;;;12.80;86.90;;;;;;926533;151;27471;-78
2023/03/25 07:07:09;;;;;;;0.83;0.77;;;12.90;86.50;;;;;;925668;151;27390;-78
2023/03/25 07:09:35;;;;;;;3.63;1.40;;;13.00;86.00;;;;;;925215;151;27750;-74
2023/03/25 07:12:02;;;;;;;2.25;0.90;;;13.00;85.90;;;;;;925001;151;27382;-74
2023/03/25 07:14:29;;;;;;;1.87;1.40;;;13.20;87.00;;;;;;926664;151;27440;-75
2023/03/25 07:16:55;;;;;;;2.80;1.10;;;13.40;89.30;;;;;;924620;151;27386;-75
2023/03/25 07:19:22;;;;;;;2.47;1.10;;;13.80;91.40;;;;;;927126;151;27533;-75
2023/03/25 07:21:48;;;;;;;2.72;1.40;;;14.40;93.00;;;;;;926107;151;27361;-75
2023/03/25 07:24:15;;;;;;;1.90;0.75;;;15.20;94.30;;;;;;924182;151;27317;-75
2023/03/25 07:26:42;;;;;;;1.22;0.90;;;16.10;94.50;;;;;;926348;151;27422;-75
2023/03/25 07:29:08;;;;;;;1.75;0.95;;;17.10;92.80;;;;;;927433;151;27413;-76
2023/03/25 07:31:35;;;;;;;3.55;0.98;;;18.10;91.60;;;;;;907715;154;27396;-75
2023/03/25 07:34:01;;;;;;;1.67;1.15;;;19.10;89.80;;;;;;925691;151;27419;-75
2023/03/25 07:36:28;;;;;;;2.70;0.80;;;20.00;83.90;;;;;;929263;150;27328;-75
2023/03/25 07:38:55;;;;;;;1.25;0.72;;;20.80;79.80;;;;;;929002;150;27423;-75
2023/03/25 07:41:21;;;;;;;1.47;0.88;;;21.60;76.20;;;;;;912826;153;27566;-75
2023/03/25 07:43:48;;;;;;;2.52;1.55;;;22.30;74.90;;;;;;921217;152;27447;-75
2023/03/25 07:46:14;;;;;;;1.50;0.70;;;22.90;71.70;;;;;;905691;155;27880;-75
2023/03/25 07:48:41;;;;;;;1.47;0.82;;;23.60;68.90;;;;;;911701;153;27470;-75
2023/03/25 07:51:08;;;;;;;2.25;0.90;;;24.10;66.40;;;;;;919046;153;27420;-75
2023/03/25 07:53:37;;;;;;;4.00;1.20;;;24.60;64.80;;;;;;917699;153;27298;-76
2023/03/25 07:56:01;;;;;;;2.50;1.22;;;25.00;63.40;;;;;;917913;153;27394;-75
2023/03/25 07:58:27;;;;;;;3.83;1.37;;;25.40;59.30;;;;;;918420;153;27428;-75
2023/03/25 08:00:54;;;;;;;2.72;1.50;;;25.60;58.90;;;;;;919531;153;27395;-75
2023/03/25 08:03:21;;;;;;;2.25;1.00;;;25.70;58.00;;;;;;917618;153;27388;-75
2023/03/25 08:05:47;;;;;;;3.87;1.20;;;25.60;56.30;;;;;;917240;153;27394;-75
2023/03/25 08:08:14;;;;;;;4.33;1.57;;;25.40;56.50;;;;;;918597;153;27465;-75
2023/03/25 08:10:43;;;;;;;1.50;1.17;;;25.10;56.00;;;;;;919927;153;27337;-75
2023/03/25 08:13:10;;;;;;;2.02;1.42;;;24.80;55.30;;;;;;918267;153;27470;-75
2023/03/25 08:15:36;;;;;;;3.10;1.57;;;24.50;55.30;;;;;;918739;153;27315;-75
2023/03/25 08:18:04;;;;;;;2.42;1.30;;;24.10;54.00;;;;;;919655;153;27789;-75
2023/03/25 08:20:29;;;;;;;2.62;1.42;;;23.80;54.40;;;;;;917702;153;27384;-75
2023/03/25 08:22:57;;;;;;;2.98;1.50;;;23.50;55.20;;;;;;918427;153;27478;-75
2023/03/25 08:25:23;;;;;;;2.75;1.67;;;23.10;55.60;;;;;;919685;153;27925;-75
2023/03/25 08:27:49;;;;;;;3.08;1.50;;;22.80;55.40;;;;;;917846;153;27415;-75
2023/03/25 08:30:16;;;;;;;3.75;1.17;;;22.50;56.30;;;;;;918309;153;27429;-75
2023/03/25 08:32:44;;;;;;;2.58;1.30;;;22.20;55.70;;;;;;939800;150;27328;-74
2023/03/25 08:35:09;;;;;;;3.90;1.70;;;22.00;56.50;;;;;;939104;150;27460;-75
2023/03/25 08:37:36;;;;;;;2.52;1.82;;;21.70;56.40;;;;;;938411;150;27376;-75
2023/03/25 08:40:06;;;;;;;3.30;1.40;;;21.50;55.80;;;;;;938077;150;27342;-75
2023/03/25 08:42:29;;;;;;;2.85;1.60;;;21.20;55.30;;;;;;939170;147;27510;-75
2023/03/25 08:44:55;;;;;;;3.58;1.67;;;20.90;56.00;;;;;;940666;148;27334;-75
2023/03/25 08:47:22;;;;;;;3.17;1.82;;;20.60;56.10;;;;;;943013;148;27357;-75
2023/03/25 08:49:48;;;;;;;2.62;1.50;;;20.50;57.00;;;;;;940812;148;27397;-75
2023/03/25 08:52:15;;;;;;;5.22;1.67;;;20.30;57.10;;;;;;940840;148;27349;-75
2023/03/25 08:54:42;;;;;;;4.45;1.55;;;20.20;57.30;;;;;;941902;148;27422;-75
2023/03/25 08:57:08;;;;;;;4.70;1.62;;;20.10;57.50;;;;;;942171;148;27435;-76
2023/03/25 08:59:35;;;;;;;4.22;1.42;;;20.10;58.30;;;;;;942085;148;27448;-75
2023/03/25 09:02:02;;;;;;;5.83;1.35;;;20.30;58.50;;;;;;940972;148;27302;-75
2023/03/25 09:04:29;;;;;;;5.00;1.57;;;20.40;59.00;;;;;;938543;148;27320;-75
2023/03/25 09:06:55;;;;;;;2.67;1.55;;;20.60;58.70;;;;;;939502;148;27334;-76
2023/03/25 09:09:21;;;;;;;2.98;1.25;;;20.70;57.80;;;;;;942217;148;27407;-78
2023/03/25 09:11:48;;;;;;;4.65;1.87;;;20.80;57.40;;;;;;939670;148;27357;-78
2023/03/25 09:14:14;;;;;;;4.50;1.50;;;20.80;56.60;;;;;;942174;148;27479;-78
2023/03/25 09:16:41;;;;;;;2.42;1.40;;;20.70;55.70;;;;;;939774;148;27350;-78
2023/03/25 09:19:08;;;;;;;3.77;1.55;;;20.50;55.30;;;;;;941481;148;27460;-79
2023/03/25 09:21:34;;;;;;;2.45;1.27;;;20.30;55.90;;;;;;939606;148;27417;-78
2023/03/25 09:24:01;;;;;;;3.08;1.32;;;20.00;56.00;;;;;;940774;148;27329;-77
2023/03/25 09:26:27;;;;;;;2.98;1.40;;;19.70;55.90;;;;;;941404;148;27387;-79
2023/03/25 09:28:56;;;;;;;2.67;1.35;;;19.50;56.30;;;;;;940158;148;27376;-78
2023/03/25 09:31:20;;;;;;;3.62;1.30;;;19.20;56.50;;;;;;938922;148;27474;-78
2023/03/25 09:33:47;;;;;;;2.80;1.30;;;18.90;56.70;;;;;;940753;148;27368;-78
2023/03/25 09:36:14;;;;;;;3.08;1.52;;;18.70;56.70;;;;;;940045;148;27338;-78
2023/03/25 09:38:40;;;;;;;4.85;1.77;;;18.40;56.80;;;;;;940718;148;27294;-78
2023/03/25 09:41:37;;;;;;;3.20;1.50;;;18.20;57.10;;;;;;939445;148;27354;-77
2023/03/25 09:44:12;;;;;;;5.25;1.35;;;18.00;57.50;;;;;;940859;148;27519;-78
2023/03/25 09:46:39;;;;;;;5.15;1.52;;;17.80;58.00;;;;;;940764;148;27457;-78
2023/03/25 09:49:06;;;;;;;2.62;1.77;;;17.60;58.30;;;;;;941195;148;27412;-77
2023/03/25 09:51:32;;;;;;;2.52;1.50;;;17.50;58.00;;;;;;941096;148;27794;-78
2023/03/25 09:53:59;;;;;;;2.45;1.15;;;17.30;58.00;;;;;;939574;148;27369;-77
2023/03/25 09:56:29;;;;;;;4.40;1.72;;;17.20;58.70;;;;;;940025;148;27397;-77
2023/03/25 09:58:58;;;;;;;4.12;2.05;;;17.20;59.00;;;;;;941272;148;27840;-78
2023/03/25 10:01:40;;;;;;;2.60;1.50;;;17.00;59.60;;;;;;939095;148;27339;-77
2023/03/25 10:04:28;;;;;;;3.58;1.35;;;17.00;59.70;;;;;;939748;148;27338;-77
2023/03/25 10:06:59;;;;;;;3.75;1.27;;;16.90;59.60;;;;;;940512;148;27433;-78
2023/03/25 10:09:47;;;;;;;3.52;1.50;;;16.90;60.00;;;;;;938966;148;28059;-77
2023/03/25 10:12:41;;;;;;;2.75;1.37;;;16.80;60.90;;;;;;940638;148;27422;-77
2023/03/25 10:15:11;;;;;;;2.40;0.85;;;16.60;61.20;;;;;;942426;148;27328;-78
2023/03/25 10:17:40;;;;;;;2.42;1.27;;;16.40;61.40;;;;;;939579;148;27459;-78
2023/03/25 10:20:13;;;;;;;2.22;0.93;;;16.20;61.90;;;;;;938273;148;27367;-77
2023/03/25 10:23:01;;;;;;;3.02;0.70;;;15.90;62.10;;;;;;918830;148;27371;-77
2023/03/25 10:25:27;;;;;;;0.40;0.40;;;15.60;62.10;;;;;;938975;148;27469;-78
2023/03/25 10:27:54;;;;;;;0.80;0.50;;;15.20;61.90;;;;;;942935;148;27300;-77
2023/03/25 10:30:20;;;;;;;0.70;0.40;;;14.80;62.40;;;;;;943002;148;27309;-78
2023/03/25 10:32:50;;;;;;;1.13;0.70;;;14.40;63.00;;;;;;941686;148;27348;-78
2023/03/25 10:35:17;;;;;;;1.00;0.50;;;14.00;63.60;;;;;;939917;148;27506;-78
2023/03/25 10:37:43;;;;;;;0.50;0.40;;;13.60;64.60;;;;;;940952;148;27394;-80
2023/03/25 10:40:31;;;;;;;2.67;0.73;;;13.40;65.90;;;;;;939385;148;27457;-79
2023/03/25 10:43:09;;;;;;;0.73;0.50;;;13.20;67.00;;;;;;922702;150;27514;-78
2023/03/25 10:45:36;;;;;;;2.30;0.77;;;13.00;67.60;;;;;;941244;147;27780;-78
2023/03/25 10:48:21;;;;;;;1.83;0.57;;;12.80;68.30;;;;;;945658;147;27345;-77
2023/03/25 10:50:47;;;;;;;0.90;0.90;;;12.70;69.10;;;;;;945101;147;27462;-78
2023/03/25 10:53:20;;;;;;;3.83;0.97;;;12.60;69.60;;;;;;942909;147;27377;-78
2023/03/25 10:55:48;;;;;;;1.80;0.60;;;12.60;70.00;;;;;;945498;147;27362;-78
2023/03/25 10:58:13;;;;;;;2.37;0.70;;;12.60;70.40;;;;;;929618;150;27410;-77
2023/03/25 11:00:39;;;;;;;1.30;0.80;;;12.60;71.40;;;;;;924434;151;27334;-77
2023/03/25 11:03:06;;;;;;;1.87;1.00;;;12.60;72.20;;;;;;922428;151;27395;-77
2023/03/25 11:05:33;;;;;;;1.70;0.77;;;12.70;72.50;;;;;;924673;150;27430;-77
2023/03/25 11:08:03;;;;;;;2.23;0.80;;;12.80;72.60;;;;;;909936;154;27393;-77
2023/03/25 11:10:29;;;;;;;1.70;1.13;;;12.90;72.50;;;;;;910386;153;27404;-77
2023/03/25 11:12:57;;;;;;;2.98;0.90;;;13.00;72.60;;;;;;908633;154;27375;-77
2023/03/25 11:15:30;;;;;;;4.70;1.17;;;13.10;72.90;;;;;;922314;151;27359;-77
2023/03/25 11:18:02;;;;;;;1.55;0.90;;;13.20;72.60;;;;;;910349;154;27441;-77
2023/03/25 11:20:29;;;;;;;1.13;0.80;;;13.40;72.80;;;;;;929885;150;27467;-77
2023/03/25 11:22:56;;;;;;;2.47;1.00;;;13.50;72.60;;;;;;925436;151;27339;-77
2023/03/25 11:25:25;;;;;;;2.60;1.03;;;13.70;72.80;;;;;;916988;153;27488;-77
2023/03/25 11:27:52;;;;;;;2.52;0.95;;;13.80;73.10;;;;;;908289;154;27535;-77
2023/03/25 11:30:18;;;;;;;2.67;1.17;;;14.00;72.60;;;;;;922245;151;27346;-77
2023/03/25 11:32:45;;;;;;;2.85;1.42;;;14.10;72.30;;;;;;923239;150;27454;-77
2023/03/25 11:35:17;;;;;;;2.17;1.00;;;14.30;72.20;;;;;;923017;151;27393;-77
2023/03/25 11:37:44;;;;;;;1.20;1.00;;;14.40;72.10;;;;;;907951;153;27465;-77
2023/03/25 11:40:13;;;;;;;1.67;0.62;;;14.50;71.90;;;;;;923992;151;27448;-77
2023/03/25 11:42:41;;;;;;;3.47;1.10;;;14.70;71.80;;;;;;917045;153;27470;-81
2023/03/25 11:45:07;;;;;;;3.45;1.20;;;14.80;71.30;;;;;;908737;153;27488;-80
2023/03/25 11:47:33;;;;;;;2.22;1.00;;;14.90;70.50;;;;;;926570;151;27359;-80
2023/03/25 11:49:59;;;;;;;1.92;1.22;;;15.00;69.70;;;;;;910177;153;27433;-80
2023/03/25 11:52:26;;;;;;;2.58;1.25;;;15.10;69.50;;;;;;909863;153;27509;-80
2023/03/25 11:54:53;;;;;;;1.40;1.03;;;15.30;69.60;;;;;;909421;153;27450;-80
2023/03/25 11:57:19;;;;;;;1.92;1.17;;;15.40;69.30;;;;;;909573;153;27412;-80
2023/03/25 11:59:46;;;;;;;1.45;0.72;;;15.60;69.20;;;;;;924718;151;27474;-80
2023/03/25 12:02:21;;;;;;;1.82;0.80;;;15.70;68.90;;;;;;910735;153;27487;-81
2023/03/25 12:04:54;;;;;;;1.65;0.90;;;15.90;68.40;;;;;;925130;151;27383;-80
2023/03/25 12:07:20;;;;;;;1.92;0.98;;;16.00;67.60;;;;;;910696;153;27508;-81
2023/03/25 12:09:49;;;;;;;2.05;0.90;;;16.20;67.50;;;;;;909225;153;27430;-79
2023/03/25 12:12:31;;;;;;;2.27;1.00;;;16.30;67.10;;;;;;922928;151;27378;-79
2023/03/25 12:15:10;;;;;;;1.62;0.88;;;16.50;66.90;;;;;;911209;153;27386;-80
2023/03/25 12:17:58;;;;;;;1.45;0.82;;;16.60;66.30;;;;;;916125;151;27480;-79
2023/03/25 12:20:31;;;;;;;2.20;0.90;;;16.80;65.90;;;;;;910411;153;27450;-80
2023/03/25 12:23:00;;;;;;;1.32;0.90;;;17.00;64.20;;;;;;911195;153;27318;-80
2023/03/25 12:25:41;;;;;;;2.47;1.10;;;17.10;64.40;;;;;;925752;151;27348;-80
2023/03/25 12:28:11;;;;;;;2.60;1.05;;;17.20;64.30;;;;;;924646;151;27510;-80
2023/03/25 12:31:14;;;;;;;2.02;1.07;;;17.30;64.00;;;;;;911064;153;27443;-79
2023/03/25 12:33:53;;;;;;;2.87;0.90;;;17.40;64.30;;;;;;919781;153;27427;-80
2023/03/25 12:36:39;;;;;;;3.52;1.05;;;17.50;64.20;;;;;;910536;153;27472;-80
2023/03/25 12:39:29;;;;;;;1.62;1.00;;;17.60;63.70;;;;;;907984;153;27406;-79
2023/03/25 12:41:56;;;;;;;1.65;0.80;;;17.80;63.40;;;;;;908943;153;27310;-79
2023/03/25 12:44:28;;;;;;;4.05;1.30;;;17.90;62.70;;;;;;906352;153;27409;-81
2023/03/25 12:47:07;;;;;;;0.78;0.62;;;17.90;62.50;;;;;;904305;155;27518;-79
2023/03/25 12:49:39;;;;;;;1.60;0.78;;;18.00;62.80;;;;;;918856;152;27396;-79
2023/03/25 12:52:30;;;;;;;0.93;0.80;;;18.10;62.10;;;;;;900954;155;27431;-80
2023/03/25 12:55:09;;;;;;;1.57;1.17;;;18.20;62.30;;;;;;911569;154;27475;-80
2023/03/25 12:57:50;;;;;;;2.85;1.07;;;18.30;61.90;;;;;;903308;153;27450;-80